| time (UTC) | temp F | wind direction | speed MPH | gust MPH | rain 1hr in | rain 24hr in | rain mn in | humidity % | barometer mb |
| 20260510003553 | 54 | 276 | 0.0 | 0.0 | 0.00 | 0.24 | 0.23 | 90 | 1009.0 |
| 20260510002053 | 54 | 276 | 0.0 | 0.0 | 0.00 | 0.24 | 0.23 | 90 | 1008.7 |
| 20260510000543 | 55 | 276 | 0.0 | 0.0 | 0.00 | 0.24 | 0.23 | 89 | 1008.7 |
| 20260509235057 | 56 | 276 | 0.0 | 2.0 | 0.00 | 0.24 | 0.23 | 88 | 1008.6 |
| 20260509233532 | 57 | 355 | 0.0 | 0.0 | 0.00 | 0.24 | 0.23 | 87 | 1008.4 |
| 20260509232029 | 57 | 355 | 0.0 | 3.0 | 0.00 | 0.24 | 0.23 | 87 | 1008.4 |
| 20260509230532 | 58 | 224 | 0.0 | 5.0 | 0.00 | 0.24 | 0.23 | 88 | 1008.3 |
| 20260509225102 | 57 | 201 | 0.0 | 2.0 | 0.00 | 0.24 | 0.23 | 88 | 1008.4 |
| 20260509223542 | 57 | 190 | 0.0 | 0.0 | 0.00 | 0.24 | 0.23 | 86 | 1008.3 |
| 20260509222037 | 58 | 278 | 3.0 | 5.0 | 0.00 | 0.24 | 0.23 | 85 | 1008.5 |
| 20260509220602 | 58 | 305 | 1.0 | 6.0 | 0.00 | 0.24 | 0.23 | 87 | 1008.4 |
| 20260509215033 | 58 | 263 | 1.0 | 3.0 | 0.00 | 0.24 | 0.23 | 88 | 1008.4 |
| 20260509213532 | 57 | 51 | 0.0 | 2.0 | 0.00 | 0.24 | 0.23 | 88 | 1008.6 |
| 20260509212044 | 57 | 247 | 1.0 | 4.0 | 0.00 | 0.24 | 0.23 | 88 | 1008.7 |
| 20260509210545 | 56 | 299 | 0.0 | 3.0 | 0.00 | 0.24 | 0.23 | 90 | 1008.8 |
| 20260509205037 | 56 | 45 | 1.0 | 4.0 | 0.00 | 0.24 | 0.23 | 90 | 1009.0 |
| 20260509203554 | 56 | 259 | 0.0 | 3.0 | 0.00 | 0.24 | 0.23 | 92 | 1009.1 |
| 20260509202051 | 55 | 258 | 0.0 | 3.0 | 0.01 | 0.24 | 0.23 | 92 | 1009.1 |
| 20260509200532 | 55 | 293 | 0.0 | 2.0 | 0.03 | 0.24 | 0.23 | 92 | 1008.9 |
| 20260509195045 | 54 | 280 | 1.0 | 2.0 | 0.06 | 0.24 | 0.23 | 92 | 1009.2 |
| 20260509193541 | 54 | 282 | 0.0 | 0.0 | 0.06 | 0.24 | 0.23 | 91 | 1009.5 |
| 20260509192036 | 54 | 309 | 0.0 | 0.0 | 0.06 | 0.23 | 0.22 | 90 | 1009.9 |
| 20260509190533 | 54 | 307 | 0.0 | 2.0 | 0.04 | 0.20 | 0.19 | 90 | 1010.2 |
| 20260509185028 | 54 | 57 | 0.0 | 2.0 | 0.04 | 0.18 | 0.17 | 90 | 1010.4 |
| 20260509183526 | 55 | 237 | 0.0 | 3.0 | 0.07 | 0.17 | 0.16 | 90 | 1010.5 |
| 20260509182028 | 55 | 320 | 0.0 | 2.0 | 0.10 | 0.17 | 0.16 | 90 | 1010.4 |
| 20260509180527 | 55 | 301 | 0.0 | 3.0 | 0.11 | 0.15 | 0.14 | 90 | 1010.4 |
| 20260509175035 | 56 | 276 | 0.0 | 2.0 | 0.10 | 0.13 | 0.12 | 89 | 1010.4 |
| 20260509173533 | 56 | 195 | 0.0 | 2.0 | 0.08 | 0.10 | 0.09 | 88 | 1010.4 |
| 20260509172035 | 57 | 230 | 0.0 | 2.0 | 0.05 | 0.07 | 0.06 | 88 | 1010.6 |
| 20260509170535 | 57 | 273 | 2.0 | 5.0 | 0.02 | 0.04 | 0.03 | 87 | 1010.5 |
| 20260509165027 | 58 | 311 | 1.0 | 3.0 | 0.01 | 0.03 | 0.02 | 85 | 1010.5 |
| 20260509163555 | 58 | 89 | 1.0 | 5.0 | 0.00 | 0.02 | 0.01 | 83 | 1010.5 |
| 20260509162050 | 58 | 283 | 3.0 | 5.0 | 0.00 | 0.02 | 0.01 | 83 | 1010.3 |
| 20260509160538 | 57 | 218 | 1.0 | 4.0 | 0.00 | 0.02 | 0.01 | 85 | 1010.5 |
| 20260509155032 | 56 | 273 | 1.0 | 4.0 | 0.00 | 0.02 | 0.01 | 86 | 1010.7 |
| 20260509153529 | 56 | 278 | 2.0 | 4.0 | 0.01 | 0.02 | 0.01 | 87 | 1010.7 |
| 20260509152030 | 56 | 288 | 0.0 | 2.0 | 0.01 | 0.02 | 0.01 | 86 | 1010.5 |
| 20260509150558 | 56 | 266 | 1.0 | 3.0 | 0.01 | 0.02 | 0.01 | 85 | 1010.5 |
| 20260509145029 | 55 | 286 | 0.0 | 2.0 | 0.00 | 0.01 | 0.00 | 85 | 1010.7 |
| 20260509143547 | 55 | 307 | 2.0 | 4.0 | 0.00 | 0.01 | 0.00 | 86 | 1010.8 |
| 20260509142046 | 54 | 269 | 0.0 | 3.0 | 0.00 | 0.01 | 0.00 | 88 | 1010.7 |
| 20260509140552 | 54 | 261 | 1.0 | 2.0 | 0.00 | 0.01 | 0.00 | 88 | 1010.5 |
| 20260509135027 | 54 | 292 | 1.0 | 2.0 | 0.00 | 0.01 | 0.00 | 87 | 1010.5 |
| 20260509133533 | 53 | 187 | 0.0 | 0.0 | 0.00 | 0.01 | 0.00 | 87 | 1010.4 |
| 20260509132032 | 53 | 221 | 0.0 | 0.0 | 0.00 | 0.01 | 0.00 | 88 | 1010.4 |
| 20260509130533 | 52 | 230 | 0.0 | 0.0 | 0.00 | 0.01 | 0.00 | 87 | 1010.4 |
| 20260509125105 | 52 | 226 | 0.0 | 0.0 | 0.00 | 0.01 | 0.00 | 88 | 1010.5 |
| 20260509123557 | 51 | 226 | 0.0 | 0.0 | 0.00 | 0.01 | 0.00 | 88 | 1010.8 |
| 20260509122032 | 51 | 188 | 0.0 | 1.0 | 0.00 | 0.01 | 0.00 | 88 | 1010.9 |
| 20260509120529 | 51 | 206 | 0.0 | 2.0 | 0.00 | 0.01 | 0.00 | 89 | 1011.0 |
| 20260509115037 | 50 | 306 | 0.0 | 2.0 | 0.00 | 0.01 | 0.00 | 90 | 1010.7 |
| 20260509113555 | 50 | 189 | 0.0 | 1.0 | 0.00 | 0.01 | 0.00 | 90 | 1010.6 |
| 20260509112032 | 50 | 189 | 0.0 | 1.0 | 0.00 | 0.01 | 0.00 | 91 | 1010.6 |
| 20260509110533 | 49 | 210 | 0.0 | 0.0 | 0.00 | 0.01 | 0.00 | 91 | 1010.2 |
| 20260509105028 | 49 | 210 | 0.0 | 0.0 | 0.00 | 0.01 | 0.00 | 90 | 1010.4 |
| 20260509103529 | 49 | 210 | 0.0 | 0.0 | 0.00 | 0.01 | 0.00 | 91 | 1010.4 |
| 20260509102046 | 49 | 210 | 0.0 | 0.0 | 0.00 | 0.01 | 0.00 | 90 | 1010.5 |
| 20260509100545 | 49 | 205 | 0.0 | 0.0 | 0.00 | 0.01 | 0.00 | 90 | 1010.6 |
| 20260509095042 | 49 | 205 | 0.0 | 0.0 | 0.00 | 0.01 | 0.00 | 90 | 1010.6 |
| 20260509093541 | 49 | 205 | 0.0 | 0.0 | 0.00 | 0.01 | 0.00 | 89 | 1010.6 |
| 20260509092041 | 49 | 205 | 0.0 | 0.0 | 0.00 | 0.01 | 0.00 | 89 | 1010.5 |
| 20260509090537 | 49 | 205 | 0.0 | 0.0 | 0.00 | 0.01 | 0.00 | 89 | 1010.6 |
| 20260509085033 | 49 | 205 | 0.0 | 0.0 | 0.00 | 0.01 | 0.00 | 89 | 1010.8 |
| 20260509083528 | 49 | 205 | 0.0 | 0.0 | 0.00 | 0.01 | 0.00 | 89 | 1011.0 |
| 20260509082043 | 49 | 205 | 0.0 | 0.0 | 0.00 | 0.01 | 0.00 | 88 | 1011.1 |
| 20260509080542 | 49 | 205 | 0.0 | 0.0 | 0.00 | 0.01 | 0.00 | 88 | 1011.1 |
| 20260509075036 | 49 | 205 | 0.0 | 0.0 | 0.00 | 0.01 | 0.00 | 88 | 1011.0 |
| 20260509073535 | 50 | 205 | 0.0 | 0.0 | 0.00 | 0.01 | 0.00 | 87 | 1011.0 |
| 20260509072050 | 50 | 205 | 0.0 | 0.0 | 0.00 | 0.01 | 0.00 | 87 | 1011.1 |
| 20260509070549 | 50 | 205 | 0.0 | 0.0 | 0.00 | 0.01 | 0.00 | 87 | 1011.2 |
| 20260509065043 | 50 | 205 | 0.0 | 0.0 | 0.00 | 0.04 | 0.00 | 87 | 1011.2 |
| 20260509063541 | 50 | 205 | 0.0 | 0.0 | 0.00 | 0.04 | 0.00 | 86 | 1011.2 |
| 20260509062037 | 50 | 205 | 0.0 | 0.0 | 0.00 | 0.04 | 0.00 | 86 | 1010.8 |
| 20260509060538 | 50 | 205 | 0.0 | 0.0 | 0.00 | 0.04 | 0.00 | 86 | 1011.0 |
| 20260509055049 | 50 | 205 | 0.0 | 0.0 | 0.00 | 0.04 | 0.00 | 87 | 1011.1 |
| 20260509053546 | 50 | 209 | 0.0 | 0.0 | 0.00 | 0.04 | 0.00 | 87 | 1011.3 |
| 20260509052038 | 50 | 209 | 0.0 | 0.0 | 0.00 | 0.04 | 0.00 | 89 | 1011.8 |
| 20260509050606 | 50 | 209 | 0.0 | 3.0 | 0.00 | 0.04 | 0.00 | 89 | 1011.9 |
| 20260509045039 | 49 | 284 | 0.0 | 0.0 | 0.01 | 0.05 | 0.00 | 89 | 1011.7 |
| 20260509043537 | 49 | 284 | 0.0 | 0.0 | 0.01 | 0.05 | 0.00 | 88 | 1011.8 |
| 20260509042036 | 49 | 284 | 0.0 | 0.0 | 0.01 | 0.05 | 0.00 | 87 | 1011.3 |
| 20260509040535 | 49 | 284 | 0.0 | 0.0 | 0.01 | 0.05 | 0.00 | 86 | 1011.4 |
| 20260509035107 | 49 | 284 | 0.0 | 0.0 | 0.00 | 0.04 | 0.04 | 85 | 1011.6 |
| 20260509033528 | 49 | 284 | 0.0 | 0.0 | 0.00 | 0.04 | 0.04 | 84 | 1011.8 |
| 20260509032032 | 49 | 284 | 0.0 | 0.0 | 0.00 | 0.04 | 0.04 | 85 | 1011.8 |
| 20260509030526 | 49 | 284 | 0.0 | 2.0 | 0.00 | 0.04 | 0.04 | 84 | 1011.7 |
| 20260509025042 | 50 | 284 | 0.0 | 0.0 | 0.00 | 0.04 | 0.04 | 82 | 1011.7 |
| 20260509023541 | 50 | 284 | 0.0 | 0.0 | 0.00 | 0.04 | 0.04 | 81 | 1011.8 |
| 20260509022040 | 51 | 284 | 0.0 | 0.0 | 0.00 | 0.04 | 0.04 | 80 | 1011.8 |
| 20260509020538 | 52 | 284 | 1.0 | 2.0 | 0.00 | 0.04 | 0.04 | 79 | 1011.7 |
| 20260509015034 | 53 | 307 | 0.0 | 0.0 | 0.00 | 0.04 | 0.04 | 78 | 1011.7 |
| 20260509013529 | 53 | 307 | 0.0 | 0.0 | 0.00 | 0.04 | 0.04 | 77 | 1011.5 |
| 20260509012042 | 54 | 307 | 0.0 | 0.0 | 0.00 | 0.04 | 0.04 | 78 | 1011.2 |
| 20260509010530 | 54 | 307 | 0.0 | 0.0 | 0.00 | 0.04 | 0.04 | 77 | 1011.5 |
| 20260509005039 | 55 | 307 | 0.0 | 0.0 | 0.00 | 0.04 | 0.04 | 75 | 1011.0 |